sensor_id;sensor_type;location;lat;lon;timestamp;P1;durP1;ratioP1;P2;durP2;ratioP2
44512;SDS011;30219;50.588;9.504;2022-09-12T00:01:43;4.10;;;2.55;;
44512;SDS011;30219;50.588;9.504;2022-09-12T00:04:08;4.70;;;2.78;;
44512;SDS011;30219;50.588;9.504;2022-09-12T00:06:35;4.55;;;2.92;;
44512;SDS011;30219;50.588;9.504;2022-09-12T00:09:11;4.30;;;2.78;;
44512;SDS011;30219;50.588;9.504;2022-09-12T00:11:38;5.03;;;2.90;;
44512;SDS011;30219;50.588;9.504;2022-09-12T00:14:06;4.13;;;2.53;;
44512;SDS011;30219;50.588;9.504;2022-09-12T00:16:35;4.63;;;2.85;;
44512;SDS011;30219;50.588;9.504;2022-09-12T00:19:01;4.40;;;2.70;;
44512;SDS011;30219;50.588;9.504;2022-09-12T00:21:28;3.90;;;2.60;;
44512;SDS011;30219;50.588;9.504;2022-09-12T00:23:54;5.40;;;2.80;;
44512;SDS011;30219;50.588;9.504;2022-09-12T00:26:20;4.70;;;2.83;;
44512;SDS011;30219;50.588;9.504;2022-09-12T00:28:46;7.70;;;3.70;;
44512;SDS011;30219;50.588;9.504;2022-09-12T00:31:14;7.55;;;3.45;;
44512;SDS011;30219;50.588;9.504;2022-09-12T00:33:41;14.45;;;3.80;;
44512;SDS011;30219;50.588;9.504;2022-09-12T00:36:09;5.13;;;3.60;;
44512;SDS011;30219;50.588;9.504;2022-09-12T00:41:07;6.65;;;3.22;;
44512;SDS011;30219;50.588;9.504;2022-09-12T00:43:44;6.25;;;3.33;;
44512;SDS011;30219;50.588;9.504;2022-09-12T00:51:36;6.22;;;3.03;;
44512;SDS011;30219;50.588;9.504;2022-09-12T00:54:05;5.65;;;3.50;;
44512;SDS011;30219;50.588;9.504;2022-09-12T00:56:34;5.97;;;3.30;;
44512;SDS011;30219;50.588;9.504;2022-09-12T00:59:04;4.03;;;2.67;;
44512;SDS011;30219;50.588;9.504;2022-09-12T01:01:33;4.25;;;2.88;;
44512;SDS011;30219;50.588;9.504;2022-09-12T01:04:00;3.58;;;2.20;;
44512;SDS011;30219;50.588;9.504;2022-09-12T01:06:27;6.45;;;3.03;;
44512;SDS011;30219;50.588;9.504;2022-09-12T01:08:56;4.97;;;3.20;;
44512;SDS011;30219;50.588;9.504;2022-09-12T01:11:23;4.10;;;3.03;;
44512;SDS011;30219;50.588;9.504;2022-09-12T01:13:49;6.97;;;3.55;;
44512;SDS011;30219;50.588;9.504;2022-09-12T01:16:15;5.72;;;3.38;;
44512;SDS011;30219;50.588;9.504;2022-09-12T01:18:48;4.47;;;3.22;;
44512;SDS011;30219;50.588;9.504;2022-09-12T01:21:21;5.82;;;3.35;;
44512;SDS011;30219;50.588;9.504;2022-09-12T01:42:33;5.93;;;3.97;;
44512;SDS011;30219;50.588;9.504;2022-09-12T01:45:22;5.88;;;4.13;;
44512;SDS011;30219;50.588;9.504;2022-09-12T01:47:50;8.32;;;4.38;;
44512;SDS011;30219;50.588;9.504;2022-09-12T01:50:27;8.48;;;4.50;;
44512;SDS011;30219;50.588;9.504;2022-09-12T01:53:02;7.32;;;5.15;;
44512;SDS011;30219;50.588;9.504;2022-09-12T01:55:33;9.18;;;4.90;;
44512;SDS011;30219;50.588;9.504;2022-09-12T02:00:48;8.65;;;4.90;;
44512;SDS011;30219;50.588;9.504;2022-09-12T02:03:26;7.93;;;4.28;;
44512;SDS011;30219;50.588;9.504;2022-09-12T02:05:59;9.93;;;4.80;;
44512;SDS011;30219;50.588;9.504;2022-09-12T02:08:30;7.40;;;4.28;;
44512;SDS011;30219;50.588;9.504;2022-09-12T02:11:00;6.82;;;4.13;;
44512;SDS011;30219;50.588;9.504;2022-09-12T02:16:50;8.32;;;4.60;;
44512;SDS011;30219;50.588;9.504;2022-09-12T02:19:22;8.05;;;4.50;;
44512;SDS011;30219;50.588;9.504;2022-09-12T02:21:52;8.65;;;5.05;;
44512;SDS011;30219;50.588;9.504;2022-09-12T02:24:24;7.60;;;4.63;;
44512;SDS011;30219;50.588;9.504;2022-09-12T02:27:02;10.07;;;4.50;;
44512;SDS011;30219;50.588;9.504;2022-09-12T02:29:38;9.05;;;3.90;;
44512;SDS011;30219;50.588;9.504;2022-09-12T02:32:05;7.95;;;4.60;;
44512;SDS011;30219;50.588;9.504;2022-09-12T02:39:56;6.82;;;4.57;;
44512;SDS011;30219;50.588;9.504;2022-09-12T02:42:22;7.05;;;4.38;;
44512;SDS011;30219;50.588;9.504;2022-09-12T02:44:49;7.05;;;4.82;;
44512;SDS011;30219;50.588;9.504;2022-09-12T02:47:25;8.60;;;4.90;;
44512;SDS011;30219;50.588;9.504;2022-09-12T02:49:54;6.53;;;4.35;;
44512;SDS011;30219;50.588;9.504;2022-09-12T02:52:21;5.78;;;4.00;;
44512;SDS011;30219;50.588;9.504;2022-09-12T02:54:47;5.75;;;4.10;;
44512;SDS011;30219;50.588;9.504;2022-09-12T02:57:18;6.03;;;4.32;;
44512;SDS011;30219;50.588;9.504;2022-09-12T02:59:47;6.13;;;4.38;;
44512;SDS011;30219;50.588;9.504;2022-09-12T03:08:11;7.00;;;4.20;;
44512;SDS011;30219;50.588;9.504;2022-09-12T03:11:08;8.90;;;4.55;;
44512;SDS011;30219;50.588;9.504;2022-09-12T03:14:06;6.75;;;4.40;;
44512;SDS011;30219;50.588;9.504;2022-09-12T03:16:53;8.30;;;4.22;;
44512;SDS011;30219;50.588;9.504;2022-09-12T03:23:04;6.90;;;4.72;;
44512;SDS011;30219;50.588;9.504;2022-09-12T03:25:44;10.52;;;4.60;;
44512;SDS011;30219;50.588;9.504;2022-09-12T03:28:16;8.05;;;4.40;;
44512;SDS011;30219;50.588;9.504;2022-09-12T03:30:44;5.88;;;3.90;;
44512;SDS011;30219;50.588;9.504;2022-09-12T03:33:16;15.48;;;5.03;;
44512;SDS011;30219;50.588;9.504;2022-09-12T03:35:43;5.30;;;3.70;;
44512;SDS011;30219;50.588;9.504;2022-09-12T03:38:10;9.38;;;4.15;;
44512;SDS011;30219;50.588;9.504;2022-09-12T03:40:36;7.72;;;4.63;;
44512;SDS011;30219;50.588;9.504;2022-09-12T03:43:03;6.72;;;4.15;;
44512;SDS011;30219;50.588;9.504;2022-09-12T03:45:29;10.20;;;4.50;;
44512;SDS011;30219;50.588;9.504;2022-09-12T03:47:55;7.88;;;4.28;;
44512;SDS011;30219;50.588;9.504;2022-09-12T03:50:21;9.60;;;4.35;;
44512;SDS011;30219;50.588;9.504;2022-09-12T03:52:46;12.88;;;4.57;;
44512;SDS011;30219;50.588;9.504;2022-09-12T03:55:12;10.73;;;4.70;;
44512;SDS011;30219;50.588;9.504;2022-09-12T03:57:38;9.13;;;4.28;;
44512;SDS011;30219;50.588;9.504;2022-09-12T04:00:04;10.50;;;4.25;;
44512;SDS011;30219;50.588;9.504;2022-09-12T04:02:32;11.35;;;4.90;;
44512;SDS011;30219;50.588;9.504;2022-09-12T04:04:58;7.72;;;4.13;;
44512;SDS011;30219;50.588;9.504;2022-09-12T04:07:24;9.95;;;4.03;;
44512;SDS011;30219;50.588;9.504;2022-09-12T04:09:49;5.35;;;3.72;;
44512;SDS011;30219;50.588;9.504;2022-09-12T04:12:15;5.97;;;3.83;;
44512;SDS011;30219;50.588;9.504;2022-09-12T04:14:40;9.48;;;4.47;;
44512;SDS011;30219;50.588;9.504;2022-09-12T04:17:06;10.50;;;4.50;;
44512;SDS011;30219;50.588;9.504;2022-09-12T04:19:32;13.85;;;5.30;;
44512;SDS011;30219;50.588;9.504;2022-09-12T04:21:57;12.35;;;4.68;;
44512;SDS011;30219;50.588;9.504;2022-09-12T04:24:23;16.55;;;5.32;;
44512;SDS011;30219;50.588;9.504;2022-09-12T04:26:49;14.45;;;4.57;;
44512;SDS011;30219;50.588;9.504;2022-09-12T04:29:14;13.50;;;5.28;;
44512;SDS011;30219;50.588;9.504;2022-09-12T04:31:40;14.82;;;5.20;;
44512;SDS011;30219;50.588;9.504;2022-09-12T04:34:06;17.00;;;5.28;;
44512;SDS011;30219;50.588;9.504;2022-09-12T04:36:32;19.48;;;5.60;;
44512;SDS011;30219;50.588;9.504;2022-09-12T04:38:58;13.07;;;5.13;;
44512;SDS011;30219;50.588;9.504;2022-09-12T04:41:26;13.02;;;5.20;;
44512;SDS011;30219;50.588;9.504;2022-09-12T04:43:54;12.85;;;5.32;;
44512;SDS011;30219;50.588;9.504;2022-09-12T04:46:28;15.80;;;5.72;;
44512;SDS011;30219;50.588;9.504;2022-09-12T04:48:55;14.20;;;5.45;;
44512;SDS011;30219;50.588;9.504;2022-09-12T04:51:23;13.20;;;4.82;;
44512;SDS011;30219;50.588;9.504;2022-09-12T04:53:52;11.00;;;4.88;;
44512;SDS011;30219;50.588;9.504;2022-09-12T04:56:20;25.05;;;5.40;;
44512;SDS011;30219;50.588;9.504;2022-09-12T04:58:46;8.82;;;5.18;;
44512;SDS011;30219;50.588;9.504;2022-09-12T05:01:16;11.77;;;5.90;;
44512;SDS011;30219;50.588;9.504;2022-09-12T05:03:44;16.45;;;5.85;;
44512;SDS011;30219;50.588;9.504;2022-09-12T05:06:14;15.75;;;5.97;;
44512;SDS011;30219;50.588;9.504;2022-09-12T05:08:44;15.68;;;6.25;;
44512;SDS011;30219;50.588;9.504;2022-09-12T05:11:11;18.92;;;6.18;;
44512;SDS011;30219;50.588;9.504;2022-09-12T05:13:38;28.20;;;7.60;;
44512;SDS011;30219;50.588;9.504;2022-09-12T05:16:05;20.95;;;8.27;;
44512;SDS011;30219;50.588;9.504;2022-09-12T05:18:32;26.83;;;7.63;;
44512;SDS011;30219;50.588;9.504;2022-09-12T05:20:59;25.15;;;8.00;;
44512;SDS011;30219;50.588;9.504;2022-09-12T05:23:26;29.88;;;9.13;;
44512;SDS011;30219;50.588;9.504;2022-09-12T05:25:53;30.90;;;9.52;;
44512;SDS011;30219;50.588;9.504;2022-09-12T05:28:21;28.35;;;8.73;;
44512;SDS011;30219;50.588;9.504;2022-09-12T05:30:47;36.22;;;9.27;;
44512;SDS011;30219;50.588;9.504;2022-09-12T05:33:23;24.23;;;7.32;;
44512;SDS011;30219;50.588;9.504;2022-09-12T05:35:51;17.60;;;7.65;;
44512;SDS011;30219;50.588;9.504;2022-09-12T05:38:17;18.98;;;7.63;;
44512;SDS011;30219;50.588;9.504;2022-09-12T05:40:42;16.10;;;7.57;;
44512;SDS011;30219;50.588;9.504;2022-09-12T05:43:08;17.38;;;6.78;;
44512;SDS011;30219;50.588;9.504;2022-09-12T05:45:36;18.52;;;7.68;;
44512;SDS011;30219;50.588;9.504;2022-09-12T05:48:02;17.35;;;7.03;;
44512;SDS011;30219;50.588;9.504;2022-09-12T05:50:28;15.43;;;6.28;;
44512;SDS011;30219;50.588;9.504;2022-09-12T05:52:53;22.27;;;7.45;;
44512;SDS011;30219;50.588;9.504;2022-09-12T05:55:19;15.57;;;6.40;;
44512;SDS011;30219;50.588;9.504;2022-09-12T05:57:45;16.58;;;7.05;;
44512;SDS011;30219;50.588;9.504;2022-09-12T06:00:11;14.35;;;6.65;;
44512;SDS011;30219;50.588;9.504;2022-09-12T06:02:38;13.50;;;5.68;;
44512;SDS011;30219;50.588;9.504;2022-09-12T06:05:04;14.30;;;6.22;;
44512;SDS011;30219;50.588;9.504;2022-09-12T06:07:30;21.88;;;7.18;;
44512;SDS011;30219;50.588;9.504;2022-09-12T06:09:56;15.48;;;6.00;;
44512;SDS011;30219;50.588;9.504;2022-09-12T06:12:23;14.20;;;5.53;;
44512;SDS011;30219;50.588;9.504;2022-09-12T06:14:57;17.73;;;6.43;;
44512;SDS011;30219;50.588;9.504;2022-09-12T06:17:23;12.90;;;5.43;;
44512;SDS011;30219;50.588;9.504;2022-09-12T06:19:48;12.93;;;6.05;;
44512;SDS011;30219;50.588;9.504;2022-09-12T06:22:15;11.95;;;5.47;;
44512;SDS011;30219;50.588;9.504;2022-09-12T06:24:42;14.10;;;5.38;;
44512;SDS011;30219;50.588;9.504;2022-09-12T06:27:08;12.63;;;5.40;;
44512;SDS011;30219;50.588;9.504;2022-09-12T06:29:33;14.15;;;5.95;;
44512;SDS011;30219;50.588;9.504;2022-09-12T06:31:59;14.18;;;5.25;;
44512;SDS011;30219;50.588;9.504;2022-09-12T06:34:25;12.73;;;5.55;;
44512;SDS011;30219;50.588;9.504;2022-09-12T06:36:51;17.10;;;6.88;;
44512;SDS011;30219;50.588;9.504;2022-09-12T06:39:18;13.55;;;6.05;;
44512;SDS011;30219;50.588;9.504;2022-09-12T06:41:45;13.77;;;5.25;;
44512;SDS011;30219;50.588;9.504;2022-09-12T06:44:14;15.30;;;6.43;;
44512;SDS011;30219;50.588;9.504;2022-09-12T06:46:45;20.63;;;8.18;;
44512;SDS011;30219;50.588;9.504;2022-09-12T06:49:11;20.50;;;6.97;;
44512;SDS011;30219;50.588;9.504;2022-09-12T06:51:37;17.00;;;6.45;;
44512;SDS011;30219;50.588;9.504;2022-09-12T06:54:03;15.50;;;7.00;;
44512;SDS011;30219;50.588;9.504;2022-09-12T06:56:29;20.35;;;7.53;;
44512;SDS011;30219;50.588;9.504;2022-09-12T06:58:55;16.55;;;6.10;;
44512;SDS011;30219;50.588;9.504;2022-09-12T07:01:26;18.17;;;6.72;;
44512;SDS011;30219;50.588;9.504;2022-09-12T07:03:56;16.25;;;7.10;;
44512;SDS011;30219;50.588;9.504;2022-09-12T07:06:25;15.93;;;7.68;;
44512;SDS011;30219;50.588;9.504;2022-09-12T07:08:59;17.02;;;6.60;;
44512;SDS011;30219;50.588;9.504;2022-09-12T07:11:30;14.85;;;6.10;;
44512;SDS011;30219;50.588;9.504;2022-09-12T07:13:58;15.90;;;6.93;;
44512;SDS011;30219;50.588;9.504;2022-09-12T07:16:25;18.23;;;6.30;;
44512;SDS011;30219;50.588;9.504;2022-09-12T07:18:56;16.25;;;7.43;;
44512;SDS011;30219;50.588;9.504;2022-09-12T07:21:23;11.05;;;4.93;;
44512;SDS011;30219;50.588;9.504;2022-09-12T07:23:49;14.80;;;6.97;;
44512;SDS011;30219;50.588;9.504;2022-09-12T07:26:16;11.38;;;5.97;;
44512;SDS011;30219;50.588;9.504;2022-09-12T07:28:42;17.63;;;6.47;;
44512;SDS011;30219;50.588;9.504;2022-09-12T07:31:09;23.70;;;6.60;;
44512;SDS011;30219;50.588;9.504;2022-09-12T07:33:37;30.83;;;7.65;;
44512;SDS011;30219;50.588;9.504;2022-09-12T07:36:04;17.17;;;8.65;;
44512;SDS011;30219;50.588;9.504;2022-09-12T07:38:32;28.63;;;10.80;;
44512;SDS011;30219;50.588;9.504;2022-09-12T07:40:59;64.18;;;7.05;;
44512;SDS011;30219;50.588;9.504;2022-09-12T07:43:25;51.75;;;5.95;;
44512;SDS011;30219;50.588;9.504;2022-09-12T07:45:55;19.17;;;6.30;;
44512;SDS011;30219;50.588;9.504;2022-09-12T07:48:20;25.02;;;4.35;;
44512;SDS011;30219;50.588;9.504;2022-09-12T07:50:47;14.57;;;4.50;;
44512;SDS011;30219;50.588;9.504;2022-09-12T07:53:20;9.65;;;4.22;;
44512;SDS011;30219;50.588;9.504;2022-09-12T07:55:51;5.63;;;4.50;;
44512;SDS011;30219;50.588;9.504;2022-09-12T07:58:20;23.10;;;4.95;;
44512;SDS011;30219;50.588;9.504;2022-09-12T08:00:47;12.70;;;5.15;;
44512;SDS011;30219;50.588;9.504;2022-09-12T08:03:12;10.07;;;5.40;;
44512;SDS011;30219;50.588;9.504;2022-09-12T08:05:38;68.70;;;6.55;;
44512;SDS011;30219;50.588;9.504;2022-09-12T08:08:04;10.90;;;6.95;;
44512;SDS011;30219;50.588;9.504;2022-09-12T08:10:29;12.55;;;5.10;;
44512;SDS011;30219;50.588;9.504;2022-09-12T08:12:56;7.13;;;5.35;;
44512;SDS011;30219;50.588;9.504;2022-09-12T08:15:22;20.08;;;7.60;;
44512;SDS011;30219;50.588;9.504;2022-09-12T08:17:47;10.75;;;6.00;;
44512;SDS011;30219;50.588;9.504;2022-09-12T08:20:13;11.18;;;6.47;;
44512;SDS011;30219;50.588;9.504;2022-09-12T08:22:38;28.83;;;9.63;;
44512;SDS011;30219;50.588;9.504;2022-09-12T08:25:04;40.63;;;12.93;;
44512;SDS011;30219;50.588;9.504;2022-09-12T08:27:30;37.42;;;12.57;;
44512;SDS011;30219;50.588;9.504;2022-09-12T08:29:56;11.73;;;6.35;;
44512;SDS011;30219;50.588;9.504;2022-09-12T08:32:22;9.60;;;5.93;;
44512;SDS011;30219;50.588;9.504;2022-09-12T08:34:47;9.70;;;5.28;;
44512;SDS011;30219;50.588;9.504;2022-09-12T08:37:13;7.10;;;4.53;;
44512;SDS011;30219;50.588;9.504;2022-09-12T08:39:39;10.13;;;4.30;;
44512;SDS011;30219;50.588;9.504;2022-09-12T08:42:05;18.67;;;5.05;;
44512;SDS011;30219;50.588;9.504;2022-09-12T08:52:37;8.57;;;4.80;;
44512;SDS011;30219;50.588;9.504;2022-09-12T08:58:18;6.38;;;4.35;;
44512;SDS011;30219;50.588;9.504;2022-09-12T09:03:26;9.25;;;4.53;;
44512;SDS011;30219;50.588;9.504;2022-09-12T09:08:53;4.45;;;3.20;;
44512;SDS011;30219;50.588;9.504;2022-09-12T09:11:33;5.05;;;3.97;;
44512;SDS011;30219;50.588;9.504;2022-09-12T09:17:15;5.05;;;3.72;;
44512;SDS011;30219;50.588;9.504;2022-09-12T09:22:59;7.15;;;4.35;;
44512;SDS011;30219;50.588;9.504;2022-09-12T09:25:50;8.63;;;3.70;;
44512;SDS011;30219;50.588;9.504;2022-09-12T09:28:25;4.90;;;3.47;;
44512;SDS011;30219;50.588;9.504;2022-09-12T09:31:01;8.65;;;4.00;;
44512;SDS011;30219;50.588;9.504;2022-09-12T09:33:32;5.45;;;3.70;;
44512;SDS011;30219;50.588;9.504;2022-09-12T09:36:01;4.60;;;3.30;;
44512;SDS011;30219;50.588;9.504;2022-09-12T09:43:59;6.28;;;3.85;;
44512;SDS011;30219;50.588;9.504;2022-09-12T09:46:25;8.48;;;3.80;;
44512;SDS011;30219;50.588;9.504;2022-09-12T09:48:51;6.18;;;3.65;;
44512;SDS011;30219;50.588;9.504;2022-09-12T09:51:27;5.38;;;3.58;;
44512;SDS011;30219;50.588;9.504;2022-09-12T09:54:08;6.63;;;3.88;;
44512;SDS011;30219;50.588;9.504;2022-09-12T09:56:39;5.40;;;3.45;;
44512;SDS011;30219;50.588;9.504;2022-09-12T09:59:10;10.68;;;3.90;;
44512;SDS011;30219;50.588;9.504;2022-09-12T10:01:50;6.22;;;3.47;;
44512;SDS011;30219;50.588;9.504;2022-09-12T10:04:25;6.28;;;2.90;;
44512;SDS011;30219;50.588;9.504;2022-09-12T10:06:55;4.47;;;3.15;;
44512;SDS011;30219;50.588;9.504;2022-09-12T10:09:26;4.63;;;2.60;;
44512;SDS011;30219;50.588;9.504;2022-09-12T10:12:18;6.00;;;3.22;;
44512;SDS011;30219;50.588;9.504;2022-09-12T10:14:55;5.15;;;2.70;;
44512;SDS011;30219;50.588;9.504;2022-09-12T10:17:26;5.00;;;2.33;;
44512;SDS011;30219;50.588;9.504;2022-09-12T10:19:54;6.05;;;2.65;;
44512;SDS011;30219;50.588;9.504;2022-09-12T10:22:21;4.93;;;2.90;;
44512;SDS011;30219;50.588;9.504;2022-09-12T10:24:50;4.57;;;3.00;;
44512;SDS011;30219;50.588;9.504;2022-09-12T10:27:19;4.95;;;3.17;;
44512;SDS011;30219;50.588;9.504;2022-09-12T10:29:54;6.97;;;2.70;;
44512;SDS011;30219;50.588;9.504;2022-09-12T10:32:41;5.43;;;3.55;;
44512;SDS011;30219;50.588;9.504;2022-09-12T10:35:29;5.72;;;3.05;;
44512;SDS011;30219;50.588;9.504;2022-09-12T10:38:06;5.75;;;3.75;;
44512;SDS011;30219;50.588;9.504;2022-09-12T10:40:53;8.02;;;3.70;;
44512;SDS011;30219;50.588;9.504;2022-09-12T10:43:25;6.00;;;3.05;;
44512;SDS011;30219;50.588;9.504;2022-09-12T10:45:59;6.85;;;3.97;;
44512;SDS011;30219;50.588;9.504;2022-09-12T10:48:47;7.75;;;4.30;;
44512;SDS011;30219;50.588;9.504;2022-09-12T10:53:48;6.85;;;3.92;;
44512;SDS011;30219;50.588;9.504;2022-09-12T10:56:17;9.07;;;3.72;;
44512;SDS011;30219;50.588;9.504;2022-09-12T11:01:23;6.07;;;3.92;;
44512;SDS011;30219;50.588;9.504;2022-09-12T11:20:52;7.57;;;3.65;;
44512;SDS011;30219;50.588;9.504;2022-09-12T11:29:34;8.73;;;3.47;;
44512;SDS011;30219;50.588;9.504;2022-09-12T11:34:53;6.85;;;3.35;;
44512;SDS011;30219;50.588;9.504;2022-09-12T11:37:41;6.03;;;3.75;;
44512;SDS011;30219;50.588;9.504;2022-09-12T11:40:22;6.88;;;4.45;;
44512;SDS011;30219;50.588;9.504;2022-09-12T11:42:54;5.70;;;3.65;;
44512;SDS011;30219;50.588;9.504;2022-09-12T11:45:28;5.70;;;3.55;;
44512;SDS011;30219;50.588;9.504;2022-09-12T11:48:03;9.18;;;3.50;;
44512;SDS011;30219;50.588;9.504;2022-09-12T11:50:34;7.10;;;3.70;;
44512;SDS011;30219;50.588;9.504;2022-09-12T11:53:56;8.80;;;4.05;;
44512;SDS011;30219;50.588;9.504;2022-09-12T11:58:19;8.35;;;4.05;;
44512;SDS011;30219;50.588;9.504;2022-09-12T12:00:49;6.78;;;4.10;;
44512;SDS011;30219;50.588;9.504;2022-09-12T12:03:24;7.95;;;3.83;;
44512;SDS011;30219;50.588;9.504;2022-09-12T12:05:54;8.05;;;4.45;;
44512;SDS011;30219;50.588;9.504;2022-09-12T12:08:25;4.97;;;3.40;;
44512;SDS011;30219;50.588;9.504;2022-09-12T12:10:54;6.18;;;3.92;;
44512;SDS011;30219;50.588;9.504;2022-09-12T12:13:58;5.40;;;3.33;;
44512;SDS011;30219;50.588;9.504;2022-09-12T12:16:29;4.45;;;2.88;;
44512;SDS011;30219;50.588;9.504;2022-09-12T12:26:40;5.00;;;3.05;;
44512;SDS011;30219;50.588;9.504;2022-09-12T12:34:32;6.07;;;3.40;;
44512;SDS011;30219;50.588;9.504;2022-09-12T12:44:56;4.30;;;2.92;;
44512;SDS011;30219;50.588;9.504;2022-09-12T12:47:24;7.10;;;2.80;;
44512;SDS011;30219;50.588;9.504;2022-09-12T12:49:57;6.10;;;2.42;;
44512;SDS011;30219;50.588;9.504;2022-09-12T12:55:24;7.00;;;3.25;;
44512;SDS011;30219;50.588;9.504;2022-09-12T12:57:56;8.88;;;2.40;;
44512;SDS011;30219;50.588;9.504;2022-09-12T13:02:59;3.78;;;2.15;;
44512;SDS011;30219;50.588;9.504;2022-09-12T13:05:26;4.90;;;2.15;;
44512;SDS011;30219;50.588;9.504;2022-09-12T13:07:55;5.82;;;2.10;;
44512;SDS011;30219;50.588;9.504;2022-09-12T13:10:26;6.65;;;2.47;;
44512;SDS011;30219;50.588;9.504;2022-09-12T13:12:54;4.53;;;2.40;;
44512;SDS011;30219;50.588;9.504;2022-09-12T13:18:00;4.55;;;1.90;;
44512;SDS011;30219;50.588;9.504;2022-09-12T13:20:30;3.88;;;2.20;;
44512;SDS011;30219;50.588;9.504;2022-09-12T13:22:59;3.05;;;1.77;;
44512;SDS011;30219;50.588;9.504;2022-09-12T13:25:26;3.65;;;1.70;;
44512;SDS011;30219;50.588;9.504;2022-09-12T13:30:35;3.90;;;1.88;;
44512;SDS011;30219;50.588;9.504;2022-09-12T13:36:02;2.60;;;1.55;;
44512;SDS011;30219;50.588;9.504;2022-09-12T13:44:31;2.50;;;1.50;;
44512;SDS011;30219;50.588;9.504;2022-09-12T13:47:07;3.20;;;1.90;;
44512;SDS011;30219;50.588;9.504;2022-09-12T13:49:40;2.35;;;1.50;;
44512;SDS011;30219;50.588;9.504;2022-09-12T13:52:08;6.72;;;2.65;;
44512;SDS011;30219;50.588;9.504;2022-09-12T13:54:44;7.05;;;1.95;;
44512;SDS011;30219;50.588;9.504;2022-09-12T13:57:30;4.80;;;1.83;;
44512;SDS011;30219;50.588;9.504;2022-09-12T13:59:58;3.08;;;1.63;;
44512;SDS011;30219;50.588;9.504;2022-09-12T14:02:27;5.03;;;1.70;;
44512;SDS011;30219;50.588;9.504;2022-09-12T14:04:54;1.85;;;1.25;;
44512;SDS011;30219;50.588;9.504;2022-09-12T14:07:36;4.15;;;1.38;;
44512;SDS011;30219;50.588;9.504;2022-09-12T14:10:21;2.25;;;1.40;;
44512;SDS011;30219;50.588;9.504;2022-09-12T14:12:47;3.22;;;1.85;;
44512;SDS011;30219;50.588;9.504;2022-09-12T14:15:18;6.03;;;1.75;;
44512;SDS011;30219;50.588;9.504;2022-09-12T14:17:51;2.60;;;1.52;;
44512;SDS011;30219;50.588;9.504;2022-09-12T14:20:19;3.45;;;1.40;;
44512;SDS011;30219;50.588;9.504;2022-09-12T14:22:47;3.90;;;1.30;;
44512;SDS011;30219;50.588;9.504;2022-09-12T14:25:18;3.53;;;1.15;;
44512;SDS011;30219;50.588;9.504;2022-09-12T14:27:56;2.55;;;1.30;;
44512;SDS011;30219;50.588;9.504;2022-09-12T14:35:30;3.38;;;0.73;;
44512;SDS011;30219;50.588;9.504;2022-09-12T14:37:57;2.25;;;1.48;;
44512;SDS011;30219;50.588;9.504;2022-09-12T14:41:19;2.38;;;1.20;;
44512;SDS011;30219;50.588;9.504;2022-09-12T14:43:31;4.47;;;1.40;;
44512;SDS011;30219;50.588;9.504;2022-09-12T14:46:02;2.22;;;1.48;;
44512;SDS011;30219;50.588;9.504;2022-09-12T14:48:31;2.72;;;1.20;;
44512;SDS011;30219;50.588;9.504;2022-09-12T14:51:01;2.47;;;1.30;;
44512;SDS011;30219;50.588;9.504;2022-09-12T14:53:32;2.35;;;1.40;;
44512;SDS011;30219;50.588;9.504;2022-09-12T14:58:36;2.28;;;1.40;;
44512;SDS011;30219;50.588;9.504;2022-09-12T15:06:02;2.75;;;1.50;;
44512;SDS011;30219;50.588;9.504;2022-09-12T15:08:31;2.17;;;1.27;;
44512;SDS011;30219;50.588;9.504;2022-09-12T15:10:57;2.63;;;1.10;;
44512;SDS011;30219;50.588;9.504;2022-09-12T15:13:24;2.08;;;1.38;;
44512;SDS011;30219;50.588;9.504;2022-09-12T15:15:53;3.17;;;1.58;;
44512;SDS011;30219;50.588;9.504;2022-09-12T15:18:21;3.38;;;1.40;;
44512;SDS011;30219;50.588;9.504;2022-09-12T15:20:49;2.90;;;1.40;;
44512;SDS011;30219;50.588;9.504;2022-09-12T15:23:27;2.47;;;1.42;;
44512;SDS011;30219;50.588;9.504;2022-09-12T15:25:59;2.53;;;1.67;;
44512;SDS011;30219;50.588;9.504;2022-09-12T15:28:25;3.60;;;1.33;;
44512;SDS011;30219;50.588;9.504;2022-09-12T15:30:52;2.42;;;1.40;;
44512;SDS011;30219;50.588;9.504;2022-09-12T15:33:19;2.60;;;1.90;;
44512;SDS011;30219;50.588;9.504;2022-09-12T15:35:48;5.88;;;2.13;;
44512;SDS011;30219;50.588;9.504;2022-09-12T15:38:14;2.50;;;1.50;;
44512;SDS011;30219;50.588;9.504;2022-09-12T15:40:40;2.88;;;1.77;;
44512;SDS011;30219;50.588;9.504;2022-09-12T15:43:05;7.72;;;1.80;;
44512;SDS011;30219;50.588;9.504;2022-09-12T15:45:32;4.32;;;1.90;;
44512;SDS011;30219;50.588;9.504;2022-09-12T15:47:58;4.78;;;1.60;;
44512;SDS011;30219;50.588;9.504;2022-09-12T15:50:25;7.63;;;2.00;;
44512;SDS011;30219;50.588;9.504;2022-09-12T15:52:52;3.22;;;1.90;;
44512;SDS011;30219;50.588;9.504;2022-09-12T15:55:22;5.05;;;1.90;;
44512;SDS011;30219;50.588;9.504;2022-09-12T15:57:49;5.43;;;2.45;;
44512;SDS011;30219;50.588;9.504;2022-09-12T16:00:16;4.40;;;2.35;;
44512;SDS011;30219;50.588;9.504;2022-09-12T16:02:42;4.35;;;2.10;;
44512;SDS011;30219;50.588;9.504;2022-09-12T16:05:15;2.88;;;1.70;;
44512;SDS011;30219;50.588;9.504;2022-09-12T16:07:43;3.55;;;1.83;;
44512;SDS011;30219;50.588;9.504;2022-09-12T16:10:19;3.60;;;1.60;;
44512;SDS011;30219;50.588;9.504;2022-09-12T16:12:50;5.80;;;2.20;;
44512;SDS011;30219;50.588;9.504;2022-09-12T16:15:20;5.80;;;1.90;;
44512;SDS011;30219;50.588;9.504;2022-09-12T16:17:47;3.42;;;1.90;;
44512;SDS011;30219;50.588;9.504;2022-09-12T16:20:13;6.97;;;2.00;;
44512;SDS011;30219;50.588;9.504;2022-09-12T16:22:39;8.55;;;2.25;;
44512;SDS011;30219;50.588;9.504;2022-09-12T16:25:05;4.40;;;1.75;;
44512;SDS011;30219;50.588;9.504;2022-09-12T16:27:32;3.67;;;1.92;;
44512;SDS011;30219;50.588;9.504;2022-09-12T16:29:57;9.50;;;2.38;;
44512;SDS011;30219;50.588;9.504;2022-09-12T16:32:23;8.10;;;2.10;;
44512;SDS011;30219;50.588;9.504;2022-09-12T16:34:49;3.33;;;2.00;;
44512;SDS011;30219;50.588;9.504;2022-09-12T16:37:14;6.93;;;2.30;;
44512;SDS011;30219;50.588;9.504;2022-09-12T16:39:40;5.40;;;2.10;;
44512;SDS011;30219;50.588;9.504;2022-09-12T16:42:06;2.78;;;2.00;;
44512;SDS011;30219;50.588;9.504;2022-09-12T16:44:32;7.75;;;2.00;;
44512;SDS011;30219;50.588;9.504;2022-09-12T16:46:57;4.68;;;2.13;;
44512;SDS011;30219;50.588;9.504;2022-09-12T16:49:23;3.63;;;1.88;;
44512;SDS011;30219;50.588;9.504;2022-09-12T16:51:48;3.38;;;2.00;;
44512;SDS011;30219;50.588;9.504;2022-09-12T16:54:14;4.13;;;1.90;;
44512;SDS011;30219;50.588;9.504;2022-09-12T16:56:41;3.20;;;2.00;;
44512;SDS011;30219;50.588;9.504;2022-09-12T16:59:07;3.05;;;2.15;;
44512;SDS011;30219;50.588;9.504;2022-09-12T17:01:36;3.03;;;2.05;;
44512;SDS011;30219;50.588;9.504;2022-09-12T17:04:02;4.35;;;2.35;;
44512;SDS011;30219;50.588;9.504;2022-09-12T17:06:27;4.75;;;2.60;;
44512;SDS011;30219;50.588;9.504;2022-09-12T17:08:56;5.93;;;2.38;;
44512;SDS011;30219;50.588;9.504;2022-09-12T17:11:34;5.28;;;2.40;;
44512;SDS011;30219;50.588;9.504;2022-09-12T17:14:02;3.45;;;2.30;;
44512;SDS011;30219;50.588;9.504;2022-09-12T17:16:33;4.55;;;2.13;;
44512;SDS011;30219;50.588;9.504;2022-09-12T17:19:01;3.60;;;2.25;;
44512;SDS011;30219;50.588;9.504;2022-09-12T17:21:27;3.85;;;2.30;;
44512;SDS011;30219;50.588;9.504;2022-09-12T17:23:52;5.88;;;2.47;;
44512;SDS011;30219;50.588;9.504;2022-09-12T17:26:18;3.83;;;2.30;;
44512;SDS011;30219;50.588;9.504;2022-09-12T17:28:44;5.07;;;2.40;;
44512;SDS011;30219;50.588;9.504;2022-09-12T17:31:11;5.80;;;2.47;;
44512;SDS011;30219;50.588;9.504;2022-09-12T17:33:37;6.43;;;2.60;;
44512;SDS011;30219;50.588;9.504;2022-09-12T17:36:05;3.92;;;2.47;;
44512;SDS011;30219;50.588;9.504;2022-09-12T17:38:33;4.47;;;2.67;;
44512;SDS011;30219;50.588;9.504;2022-09-12T17:41:07;3.35;;;2.17;;